Time;durP1;ratioP1;P1;durP2;ratioP2;P2;SDS_P1;SDS_P2;PMS_P1;PMS_P2;Temp;Humidity;BMP_temperature;BMP_pressure;BME280_temperature;BME280_humidity;BME280_pressure;Samples;Min_cycle;Max_cycle;Signal;HPM_P1;HPM_P2
2023/09/08 05:15:35;;;;;;;;;;;;;;;4.91;100.00;99819.88;5161245;23;20341;-89
2023/09/08 05:18:00;;;;;;;;;;;;;;;4.93;100.00;99816.31;5032458;28;19964;-92
2023/09/08 05:20:25;;;;;;;;;;;;;;;4.94;100.00;99818.06;5032344;28;19924;-88
2023/09/08 05:22:51;;;;;;;;;;;;;;;4.91;100.00;99819.88;5031421;28;19940;-89
2023/09/08 05:25:16;;;;;;;;;;;;;;;4.97;100.00;99824.13;5031937;28;19921;-88
2023/09/08 05:27:41;;;;;;;;;;;;;;;4.90;100.00;99828.63;5031888;28;19913;-94
2023/09/08 05:30:07;;;;;;;;;;;;;;;4.92;100.00;99825.97;5030814;28;19928;-89
2023/09/08 05:32:32;;;;;;;;;;;;;;;4.99;100.00;99830.19;5014656;28;19913;-90
2023/09/08 05:34:57;;;;;;;;;;;;;;;5.09;100.00;99834.38;5031977;28;19918;-91
2023/09/08 05:37:22;;;;;;;;;;;;;;;5.08;100.00;99837.91;5032091;28;20399;-90
2023/09/08 05:39:48;;;;;;;;;;;;;;;5.14;100.00;99839.56;5032151;28;19917;-89
2023/09/08 05:42:13;;;;;;;;;;;;;;;5.07;100.00;99835.31;5014444;28;19924;-91
2023/09/08 05:44:39;;;;;;;;;;;;;;;5.02;100.00;99843.28;5030737;28;19975;-90
2023/09/08 05:47:05;;;;;;;;;;;;;;;5.01;100.00;99841.56;5032030;28;20550;-89
2023/09/08 05:49:30;;;;;;;;;;;;;;;5.05;100.00;99842.34;4990581;28;20426;-88
2023/09/08 05:51:55;;;;;;;;;;;;;;;4.96;100.00;99838.13;5031926;28;19920;-91
2023/09/08 05:54:20;;;;;;;;;;;;;;;4.96;100.00;99843.38;5031905;28;19963;-89
2023/09/08 05:56:46;;;;;;;;;;;;;;;5.08;100.00;99842.28;5032126;28;19921;-90
2023/09/08 05:59:11;;;;;;;;;;;;;;;5.06;100.00;99846.72;5012852;28;20039;-89
2023/09/08 06:01:36;;;;;;;;;;;;;;;5.04;100.00;99848.50;5014105;28;19925;-89
2023/09/08 06:04:02;;;;;;;;;;;;;;;4.99;100.00;99848.56;5014163;28;20010;-90
2023/09/08 06:06:28;;;;;;;;;;;;;;;5.08;100.00;99844.94;5031791;28;20288;-89
2023/09/08 06:08:53;;;;;;;;;;;;;;;5.02;100.00;99842.41;5031817;28;19924;-90
2023/09/08 06:11:18;;;;;;;;;;;;;;;4.96;100.00;99847.78;5031829;28;19928;-89
2023/09/08 06:13:44;;;;;;;;;;;;;;;4.93;100.00;99847.84;5030447;28;20315;-91
2023/09/08 06:16:09;;;;;;;;;;;;;;;4.99;100.00;99843.31;5031649;28;19921;-89
2023/09/08 06:18:39;;;;;;;;;;;;;;;5.01;100.00;99845.91;5014090;28;20361;-89
2023/09/08 06:21:05;;;;;;;;;;;;;;;5.03;100.00;99842.38;5013670;28;20319;-88
2023/09/08 06:23:33;;;;;;;;;;;;;;;5.09;100.00;99850.16;5031692;28;19921;-90
2023/09/08 06:26:01;;;;;;;;;;;;;;;5.11;100.00;99847.50;5031360;28;19921;-90
2023/09/08 06:28:27;;;;;;;;;;;;;;;5.14;100.00;99852.69;5030379;28;20354;-89
2023/09/08 06:30:52;;;;;;;;;;;;;;;5.19;100.00;99848.19;5031808;28;19918;-91
2023/09/08 06:33:17;;;;;;;;;;;;;;;5.18;100.00;99848.22;5031739;28;20061;-88
2023/09/08 06:35:43;;;;;;;;;;;;;;;5.16;100.00;99850.03;5031465;28;19917;-93
2023/09/08 06:38:08;;;;;;;;;;;;;;;5.22;100.00;99852.53;5017589;28;19959;-92
2023/09/08 06:40:33;;;;;;;;;;;;;;;5.20;100.00;99847.31;5035147;28;19924;-91
2023/09/08 06:42:59;;;;;;;;;;;;;;;5.18;100.00;99854.34;5035174;28;19932;-91
2023/09/08 06:45:24;;;;;;;;;;;;;;;5.14;100.00;99850.06;5016260;28;19917;-89
2023/09/08 06:47:52;;;;;;;;;;;;;;;5.12;100.00;99854.47;5035289;28;19921;-91
2023/09/08 06:50:17;;;;;;;;;;;;;;;5.14;100.00;99847.44;5017419;28;19949;-90
2023/09/08 06:52:42;;;;;;;;;;;;;;;5.16;100.00;99844.78;5035296;28;19971;-92
2023/09/08 06:55:09;;;;;;;;;;;;;;;5.13;100.00;99848.31;5034141;28;19917;-91
2023/09/08 06:57:34;;;;;;;;;;;;;;;5.21;100.00;99842.91;5035096;28;19924;-90
2023/09/08 06:59:59;;;;;;;;;;;;;;;5.15;100.00;99843.91;5033709;28;20286;-85
2023/09/08 07:02:25;;;;;;;;;;;;;;;5.15;100.00;99848.28;5017052;28;19975;-88
2023/09/08 07:04:50;;;;;;;;;;;;;;;5.18;100.00;99845.59;5034957;28;19921;-92
2023/09/08 07:07:17;;;;;;;;;;;;;;;5.19;100.00;99856.09;5016877;28;19917;-88
2023/09/08 07:09:42;;;;;;;;;;;;;;;5.11;100.00;99852.75;5034921;28;19921;-89
2023/09/08 07:12:08;;;;;;;;;;;;;;;5.28;100.00;99855.91;5034723;28;19991;-89
2023/09/08 07:14:33;;;;;;;;;;;;;;;5.24;100.00;99856.84;5033307;28;19917;-90
2023/09/08 07:16:58;;;;;;;;;;;;;;;5.10;100.00;99856.25;5034488;28;20395;-91
2023/09/08 07:19:23;;;;;;;;;;;;;;;5.03;100.00;99858.13;5016764;28;19917;-90
2023/09/08 08:03:11;;;;;;;;;;;;;;;5.00;100.00;99847.69;5130403;23;19932;-89
2023/09/08 08:05:36;;;;;;;;;;;;;;;5.08;100.00;99847.56;5058561;28;19978;-89
2023/09/08 08:08:01;;;;;;;;;;;;;;;5.10;100.00;99845.75;5038140;28;19960;-89
2023/09/08 08:10:27;;;;;;;;;;;;;;;5.06;100.00;99844.94;5062890;28;19998;-89
2023/09/08 08:12:52;;;;;;;;;;;;;;;5.15;100.00;99849.16;5057703;28;19924;-89
2023/09/08 08:15:19;;;;;;;;;;;;;;;5.08;100.00;99853.66;5060121;28;20363;-89
2023/09/08 08:17:44;;;;;;;;;;;;;;;5.11;100.00;99852.75;5058518;28;19967;-91
2023/09/08 08:20:17;;;;;;;;;;;;;;;5.09;100.00;99847.53;5045984;28;20335;-88
2023/09/08 08:22:45;;;;;;;;;;;;;;;5.08;100.00;99844.94;5062783;28;19928;-91
2023/09/08 08:25:12;;;;;;;;;;;;;;;5.13;100.00;99843.06;5062563;28;19927;-92
2023/09/08 08:27:37;;;;;;;;;;;;;;;5.14;100.00;99843.91;5064369;28;20351;-91
2023/09/08 08:30:03;;;;;;;;;;;;;;;5.21;100.00;99845.53;5048566;28;20007;-87
2023/09/08 08:32:28;;;;;;;;;;;;;;;5.24;100.00;99841.09;5062354;28;19920;-92
2023/09/08 08:34:54;;;;;;;;;;;;;;;5.23;100.00;99849.88;5062588;28;19991;-88
2023/09/08 08:37:19;;;;;;;;;;;;;;;5.22;100.00;99847.28;5061261;28;19992;-90
2023/09/08 08:39:44;;;;;;;;;;;;;;;5.19;100.00;99845.56;5047238;28;19990;-90
2023/09/08 08:42:10;;;;;;;;;;;;;;;5.14;100.00;99847.44;5063364;28;20341;-91
2023/09/08 08:44:37;;;;;;;;;;;;;;;5.18;100.00;99850.84;5064113;28;19923;-90
2023/09/08 08:47:02;;;;;;;;;;;;;;;5.22;100.00;99842.03;5058521;28;19943;-90
2023/09/08 08:49:30;;;;;;;;;;;;;;;5.27;100.00;99848.06;5063319;28;20458;-92
2023/09/08 08:51:57;;;;;;;;;;;;;;;5.27;100.00;99842.81;5044537;28;19923;-88
2023/09/08 08:54:23;;;;;;;;;;;;;;;5.21;100.00;99843.78;5063670;28;20290;-89
2023/09/08 08:56:48;;;;;;;;;;;;;;;5.23;100.00;99836.75;5046194;28;19927;-90
2023/09/08 08:59:18;;;;;;;;;;;;;;;5.28;100.00;99829.63;5045241;28;20024;-94
2023/09/08 09:01:43;;;;;;;;;;;;;;;5.26;100.00;99836.69;5060591;28;19916;-91
2023/09/08 09:04:09;;;;;;;;;;;;;;;5.25;100.00;99841.97;5043064;28;19961;-91
2023/09/08 09:06:35;;;;;;;;;;;;;;;5.21;100.00;99843.78;5062191;28;20387;-87
2023/09/08 09:09:00;;;;;;;;;;;;;;;5.25;100.00;99840.19;5045987;28;19916;-92
2023/09/08 09:11:26;;;;;;;;;;;;;;;5.26;100.00;99841.94;5061795;28;20000;-92
2023/09/08 09:13:51;;;;;;;;;;;;;;;5.34;100.00;99833.03;5043563;28;19917;-90
2023/09/08 09:16:16;;;;;;;;;;;;;;;5.32;100.00;99842.72;5063518;28;19921;-91
2023/09/08 09:18:55;;;;;;;;;;;;;;;5.34;100.00;99836.50;5046383;28;20015;-91
2023/09/08 09:21:21;;;;;;;;;;;;;;;5.31;100.00;99844.44;5064538;28;19928;-92
2023/09/08 09:23:46;;;;;;;;;;;;;;;5.30;100.00;99833.97;5047200;28;19920;-93
2023/09/08 09:26:30;;;;;;;;;;;;;;;5.36;100.00;99826.84;5044642;28;19920;-93
2023/09/08 09:28:59;;;;;;;;;;;;;;;5.37;100.00;99830.34;5044393;28;20419;-90
2023/09/08 09:31:25;;;;;;;;;;;;;;;5.43;100.00;99830.22;5043269;28;19928;-91
2023/09/08 09:34:04;;;;;;;;;;;;;;;5.36;100.00;99833.84;5043627;28;19978;-92
2023/09/08 09:36:29;;;;;;;;;;;;;;;5.38;100.00;99830.31;5061132;28;19943;-90
2023/09/08 09:38:58;;;;;;;;;;;;;;;5.32;100.00;99821.69;5044690;28;20326;-89
2023/09/08 09:41:23;;;;;;;;;;;;;;;5.28;100.00;99819.13;5061071;28;20032;-90
2023/09/08 09:43:48;;;;;;;;;;;;;;;5.32;100.00;99821.69;5043911;28;19999;-89
2023/09/08 09:46:15;;;;;;;;;;;;;;;5.34;100.00;99812.84;5044283;28;19920;-91
2023/09/08 09:48:40;;;;;;;;;;;;;;;5.30;100.00;99815.56;5062760;28;19917;-91
2023/09/08 09:51:16;;;;;;;;;;;;;;;5.31;100.00;99817.31;5041855;28;19917;-92
2023/09/08 09:53:44;;;;;;;;;;;;;;;5.33;100.00;99818.16;5061720;28;19979;-90
2023/09/08 09:58:45;;;;;;;;;;;;;;;5.37;100.00;99822.44;4573347;26;20364;-87
2023/09/08 10:01:11;;;;;;;;;;;;;;;5.33;100.00;99815.53;5012939;28;19979;-90
2023/09/08 10:03:37;;;;;;;;;;;;;;;5.40;100.00;99822.38;5014188;28;19921;-89
2023/09/08 10:06:03;;;;;;;;;;;;;;;5.43;100.00;99817.06;5013873;28;19924;-91
2023/09/08 10:08:32;;;;;;;;;;;;;;;5.50;100.00;99825.69;5014626;28;20004;-91
2023/09/08 10:10:59;;;;;;;;;;;;;;;5.39;100.00;99816.28;5035471;28;19924;-89
2023/09/08 10:13:29;;;;;;;;;;;;;;;5.40;100.00;99817.13;5015404;28;20020;-92
2023/09/08 10:15:58;;;;;;;;;;;;;;;5.43;100.00;99814.44;5016227;28;19976;-94
2023/09/08 10:18:24;;;;;;;;;;;;;;;5.43;100.00;99812.66;5035120;28;19967;-87
2023/09/08 10:20:53;;;;;;;;;;;;;;;5.44;100.00;99810.91;5035614;28;19913;-89
2023/09/08 10:23:31;;;;;;;;;;;;;;;5.45;100.00;99815.25;5032714;28;19971;-89
2023/09/08 10:25:59;;;;;;;;;;;;;;;5.60;100.00;99809.69;5017084;28;19943;-86
2023/09/08 10:28:25;;;;;;;;;;;;;;;5.54;100.00;99799.31;5015373;28;20381;-87
2023/09/08 10:30:51;;;;;;;;;;;;;;;5.47;100.00;99802.94;5032941;28;19964;-88
2023/09/08 10:33:25;;;;;;;;;;;;;;;5.52;100.00;99801.09;5016232;28;19921;-85
2023/09/08 10:35:51;;;;;;;;;;;;;;;5.50;100.00;99807.28;5034927;28;19968;-93
2023/09/08 10:38:26;;;;;;;;;;;;;;;5.52;100.00;99795.84;5016623;28;19971;-88
2023/09/08 10:41:11;;;;;;;;;;;;;;;5.53;100.00;99802.81;5016157;28;19972;-85
2023/09/08 10:43:37;;;;;;;;;;;;;;;5.52;100.00;99795.84;5019147;28;19931;-92
2023/09/08 10:46:10;;;;;;;;;;;;;;;5.52;100.00;99802.84;5029813;28;19925;-90
2023/09/08 10:48:43;;;;;;;;;;;;;;;5.55;100.00;99795.78;5016623;28;19921;-88
2023/09/08 10:51:13;;;;;;;;;;;;;;;5.54;100.00;99804.56;5031252;28;19964;-90
2023/09/08 10:53:39;;;;;;;;;;;;;;;5.60;100.00;99799.16;5031826;28;19967;-90
2023/09/08 10:56:04;;;;;;;;;;;;;;;5.54;100.00;99791.41;5033704;28;19944;-91
2023/09/08 10:58:35;;;;;;;;;;;;;;;5.64;100.00;99794.69;5035542;28;20368;-88
2023/09/08 11:01:01;;;;;;;;;;;;;;;5.55;100.00;99800.16;5030158;28;19921;-87
2023/09/08 11:03:27;;;;;;;;;;;;;;;5.57;100.00;99788.72;5011803;28;19975;-85
2023/09/08 11:05:53;;;;;;;;;;;;;;;5.56;100.00;99791.38;5014949;28;20007;-89
2023/09/08 11:08:18;;;;;;;;;;;;;;;5.54;100.00;99791.41;5032650;28;20448;-87
2023/09/08 11:10:44;;;;;;;;;;;;;;;5.57;100.00;99793.97;5030636;28;19925;-86
2023/09/08 11:13:09;;;;;;;;;;;;;;;5.57;100.00;99786.09;5033540;28;19989;-87
2023/09/08 11:15:35;;;;;;;;;;;;;;;5.48;100.00;99790.69;5034329;28;19925;-89
2023/09/08 11:18:04;;;;;;;;;;;;;;;5.51;100.00;99785.38;5013470;28;19921;-86
2023/09/08 11:20:29;;;;;;;;;;;;;;;5.51;100.00;99788.84;5013865;28;19928;-87
2023/09/08 11:22:54;;;;;;;;;;;;;;;5.59;100.00;99784.28;5015714;28;20016;-89
2023/09/08 11:25:20;;;;;;;;;;;;;;;5.51;100.00;99788.84;5033142;28;19928;-88
2023/09/08 11:27:46;;;;;;;;;;;;;;;5.58;100.00;99781.69;5032347;28;19925;-89
2023/09/08 11:30:12;;;;;;;;;;;;;;;5.57;100.00;99777.34;5012864;28;19928;-91
2023/09/08 11:32:37;;;;;;;;;;;;;;;5.51;100.00;99780.13;5031417;28;19921;-92
2023/09/08 11:35:04;;;;;;;;;;;;;;;5.61;100.00;99781.63;5032185;28;19925;-90
2023/09/08 11:37:29;;;;;;;;;;;;;;;5.60;100.00;99778.16;5030274;28;20323;-90
2023/09/08 11:39:55;;;;;;;;;;;;;;;5.62;100.00;99776.34;5033372;28;19943;-94
2023/09/08 11:42:21;;;;;;;;;;;;;;;5.62;100.00;99784.22;5034236;28;19935;-89
2023/09/08 11:44:46;;;;;;;;;;;;;;;5.57;100.00;99778.22;5034900;28;20414;-94
2023/09/08 11:47:12;;;;;;;;;;;;;;;5.71;100.00;99780.53;5033025;28;19929;-90
2023/09/08 11:49:38;;;;;;;;;;;;;;;5.74;100.00;99775.19;5032911;28;19922;-93
2023/09/08 11:52:04;;;;;;;;;;;;;;;5.72;100.00;99770.88;5034238;28;19928;-92
2023/09/08 11:54:33;;;;;;;;;;;;;;;5.70;100.00;99780.56;5035126;28;19921;-94
2023/09/08 11:57:02;;;;;;;;;;;;;;;5.77;100.00;99779.50;5034813;28;19932;-93
2023/09/08 11:59:30;;;;;;;;;;;;;;;5.81;100.00;99770.66;5017183;28;20372;-93
2023/09/08 12:01:56;;;;;;;;;;;;;;;5.75;100.00;99770.81;5032890;28;20151;-92
2023/09/08 12:04:21;;;;;;;;;;;;;;;5.81;100.00;99778.56;5017393;28;19917;-93
2023/09/08 12:06:51;;;;;;;;;;;;;;;5.80;100.00;99774.19;5033873;28;20012;-87
2023/09/08 12:09:16;;;;;;;;;;;;;;;5.79;100.00;99770.69;5034041;28;19921;-91
2023/09/08 12:11:42;;;;;;;;;;;;;;;5.84;100.00;99773.22;5015303;28;20327;-92
2023/09/08 12:14:09;;;;;;;;;;;;;;;5.81;100.00;99775.91;5032276;28;19929;-91
2023/09/08 12:16:35;;;;;;;;;;;;;;;5.74;100.00;99769.91;5013375;28;19964;-91
2023/09/08 12:19:00;;;;;;;;;;;;;;;5.75;100.00;99766.41;5032643;28;19961;-87
2023/09/08 12:23:54;;;;;;;;;;;;;;;5.69;100.00;99761.28;5058625;23;19925;-90
2023/09/08 12:26:20;;;;;;;;;;;;;;;5.71;100.00;99767.38;5022470;28;20368;-90
2023/09/08 12:28:45;;;;;;;;;;;;;;;5.71;100.00;99763.88;5026898;28;19929;-91
2023/09/08 12:31:12;;;;;;;;;;;;;;;5.71;100.00;99759.50;5022608;28;19928;-93
2023/09/08 12:33:38;;;;;;;;;;;;;;;5.75;100.00;99758.50;5043353;28;20019;-92
2023/09/08 12:36:16;;;;;;;;;;;;;;;5.77;100.00;99753.22;5029339;28;20075;-91
2023/09/08 12:38:48;;;;;;;;;;;;;;;5.81;100.00;99750.47;5045952;28;20375;-93
2023/09/08 12:41:14;;;;;;;;;;;;;;;5.78;100.00;99749.69;5038361;28;19943;-93
2023/09/08 12:43:39;;;;;;;;;;;;;;;5.80;100.00;99745.25;5042278;28;20007;-92
2023/09/08 12:46:04;;;;;;;;;;;;;;;5.73;100.00;99747.19;5026468;28;20016;-92
2023/09/08 12:48:30;;;;;;;;;;;;;;;5.73;100.00;99738.44;5027413;28;19917;-93
2023/09/08 12:50:55;;;;;;;;;;;;;;;5.67;100.00;99738.56;5025035;28;20310;-88
2023/09/08 12:53:22;;;;;;;;;;;;;;;5.69;100.00;99744.66;5042872;28;19924;-90
2023/09/08 12:55:48;;;;;;;;;;;;;;;5.75;100.00;99749.78;5038037;28;19964;-93
2023/09/08 12:58:14;;;;;;;;;;;;;;;5.90;100.00;99741.50;5024617;28;19948;-89
2023/09/08 13:00:39;;;;;;;;;;;;;;;5.74;100.00;99735.72;5029015;28;19939;-92
2023/09/08 13:03:04;;;;;;;;;;;;;;;5.78;100.00;99737.41;5021648;28;19921;-94
2023/09/08 13:05:30;;;;;;;;;;;;;;;5.69;100.00;99731.50;5025954;28;20478;-89
2023/09/08 13:07:56;;;;;;;;;;;;;;;5.75;100.00;99728.72;5040606;28;20292;-90
2023/09/08 13:10:21;;;;;;;;;;;;;;;5.65;100.00;99728.09;5041221;28;19932;-92
2023/09/08 13:12:48;;;;;;;;;;;;;;;5.68;100.00;99724.50;5025456;28;20016;-87
2023/09/08 13:15:13;;;;;;;;;;;;;;;5.78;100.00;99724.25;5026046;28;20432;-91
2023/09/08 13:17:39;;;;;;;;;;;;;;;5.63;100.00;99722.88;5024015;28;20061;-92
2023/09/08 13:20:04;;;;;;;;;;;;;;;5.72;100.00;99724.41;5023987;28;19944;-92
2023/09/08 13:22:29;;;;;;;;;;;;;;;5.75;100.00;99715.59;5032758;28;19921;-91
2023/09/08 13:24:55;;;;;;;;;;;;;;;5.74;100.00;99719.09;5041809;28;19916;-90
2023/09/08 13:27:20;;;;;;;;;;;;;;;5.82;100.00;99714.53;5041894;28;19924;-92
2023/09/08 13:29:45;;;;;;;;;;;;;;;5.83;100.00;99716.25;5030494;28;19929;-90
2023/09/08 13:32:11;;;;;;;;;;;;;;;5.78;100.00;99708.47;5041073;28;20000;-93
2023/09/08 13:34:38;;;;;;;;;;;;;;;5.90;100.00;99717.81;5041198;28;19925;-91
2023/09/08 13:37:03;;;;;;;;;;;;;;;5.92;100.00;99708.16;5038248;28;20391;-93
2023/09/08 13:39:28;;;;;;;;;;;;;;;5.84;100.00;99710.09;5046020;28;19917;-91
2023/09/08 13:41:54;;;;;;;;;;;;;;;5.98;100.00;99702.78;5036386;28;19917;-92
2023/09/08 13:44:21;;;;;;;;;;;;;;;5.94;100.00;99700.22;5040491;28;19921;-93
2023/09/08 13:46:46;;;;;;;;;;;;;;;5.86;100.00;99703.03;5038695;28;19924;-86
2023/09/08 13:49:12;;;;;;;;;;;;;;;5.83;100.00;99689.97;5040415;28;20299;-90
2023/09/08 13:51:37;;;;;;;;;;;;;;;5.90;100.00;99695.94;5039977;28;20307;-92
2023/09/08 13:54:02;;;;;;;;;;;;;;;5.80;100.00;99696.16;5043570;28;20390;-91
2023/09/08 13:56:27;;;;;;;;;;;;;;;5.78;100.00;99697.97;5040091;28;19921;-89
2023/09/08 13:58:53;;;;;;;;;;;;;;;5.74;100.00;99691.03;5035193;28;19923;-91
2023/09/08 14:01:20;;;;;;;;;;;;;;;5.79;100.00;99685.66;5038371;28;20403;-92
2023/09/08 14:03:45;;;;;;;;;;;;;;;5.74;100.00;99677.91;5039277;28;19980;-88
2023/09/08 14:06:10;;;;;;;;;;;;;;;5.73;100.00;99681.44;5042185;28;19916;-91
2023/09/08 14:08:35;;;;;;;;;;;;;;;5.70;100.00;99685.94;5042257;28;19923;-92
2023/09/08 14:11:01;;;;;;;;;;;;;;;5.72;100.00;99686.75;5041038;28;19921;-88
2023/09/08 14:13:26;;;;;;;;;;;;;;;5.68;100.00;99683.34;5039011;28;20330;-90
2023/09/08 14:15:51;;;;;;;;;;;;;;;5.81;100.00;99686.53;5040024;28;19979;-89
2023/09/08 14:18:17;;;;;;;;;;;;;;;5.74;100.00;99680.53;5039822;28;19928;-91
2023/09/08 14:20:43;;;;;;;;;;;;;;;5.79;100.00;99683.03;5039409;28;20394;-94
2023/09/08 14:23:08;;;;;;;;;;;;;;;5.71;100.00;99674.47;5054620;28;20007;-91
2023/09/08 14:25:34;;;;;;;;;;;;;;;5.77;100.00;99679.59;5045976;28;20019;-88
2023/09/08 14:28:02;;;;;;;;;;;;;;;5.75;100.00;99670.88;5065299;28;19966;-90
2023/09/08 14:30:27;;;;;;;;;;;;;;;5.75;100.00;99682.25;5062421;28;20414;-92
2023/09/08 14:32:53;;;;;;;;;;;;;;;5.85;100.00;99682.91;5044357;28;19992;-94
2023/09/08 14:35:18;;;;;;;;;;;;;;;5.87;100.00;99675.84;5045098;28;20244;-92
2023/09/08 14:37:43;;;;;;;;;;;;;;;5.82;100.00;99680.34;5043539;28;19920;-92
2023/09/08 14:40:09;;;;;;;;;;;;;;;5.88;100.00;99672.28;5044726;28;20324;-92
2023/09/08 14:42:34;;;;;;;;;;;;;;;5.79;100.00;99669.91;5041822;28;19923;-91
2023/09/08 14:44:59;;;;;;;;;;;;;;;5.72;100.00;99673.59;5045262;28;19916;-92
2023/09/08 14:47:25;;;;;;;;;;;;;;;5.68;100.00;99671.94;5044615;28;19920;-94
2023/09/08 14:49:50;;;;;;;;;;;;;;;5.76;100.00;99672.59;5042176;28;20402;-92
2023/09/08 14:52:16;;;;;;;;;;;;;;;5.79;100.00;99668.16;5044819;28;19923;-91
2023/09/08 14:54:41;;;;;;;;;;;;;;;5.74;100.00;99669.16;5044013;28;19927;-91
2023/09/08 14:57:07;;;;;;;;;;;;;;;5.84;100.00;99670.66;5044380;28;19920;-91
2023/09/08 14:59:32;;;;;;;;;;;;;;;5.75;100.00;99665.63;5066811;28;19916;-92
2023/09/08 15:01:57;;;;;;;;;;;;;;;5.77;100.00;99669.06;5067854;28;19979;-90
2023/09/08 15:04:22;;;;;;;;;;;;;;;5.74;100.00;99670.00;5068721;28;19923;-90
2023/09/08 15:06:48;;;;;;;;;;;;;;;5.72;100.00;99670.97;5046751;28;19917;-91
2023/09/08 15:09:16;;;;;;;;;;;;;;;5.71;100.00;99663.97;5048835;28;19972;-92
2023/09/08 15:11:41;;;;;;;;;;;;;;;5.68;100.00;99669.31;5045516;28;20503;-90
2023/09/08 15:14:07;;;;;;;;;;;;;;;5.67;100.00;99670.22;5048323;28;20017;-91
2023/09/08 15:16:32;;;;;;;;;;;;;;;5.64;100.00;99664.13;5045989;28;19916;-89
2023/09/08 15:18:57;;;;;;;;;;;;;;;5.63;100.00;99665.03;5045945;28;19979;-91
2023/09/08 15:21:27;;;;;;;;;;;;;;;5.60;100.00;99666.84;5068900;28;19923;-93
2023/09/08 15:23:52;;;;;;;;;;;;;;;5.60;100.00;99672.13;5045362;28;19921;-88
2023/09/08 15:26:17;;;;;;;;;;;;;;;5.61;100.00;99660.72;5046254;28;20153;-90
2023/09/08 15:28:43;;;;;;;;;;;;;;;5.59;100.00;99655.50;5049230;28;19916;-90
2023/09/08 15:31:10;;;;;;;;;;;;;;;5.54;100.00;99662.63;5062825;28;19932;-89
2023/09/08 15:33:37;;;;;;;;;;;;;;;5.63;100.00;99654.53;5061073;28;20297;-87
2023/09/08 15:36:02;;;;;;;;;;;;;;;5.64;100.00;99652.75;5043564;28;20365;-90
2023/09/08 15:38:27;;;;;;;;;;;;;;;5.57;100.00;99664.34;5065630;28;20007;-93
2023/09/08 15:41:08;;;;;;;;;;;;;;;5.55;100.00;99667.00;5065401;28;19913;-92
2023/09/08 15:43:35;;;;;;;;;;;;;;;5.60;100.00;99669.47;5046971;28;20293;-88
2023/09/08 15:46:00;;;;;;;;;;;;;;;5.54;100.00;99665.25;5064010;28;20330;-92
2023/09/08 15:48:26;;;;;;;;;;;;;;;5.60;100.00;99661.59;5064749;28;19935;-91
2023/09/08 15:50:51;;;;;;;;;;;;;;;5.66;100.00;99660.59;5059532;28;19921;-91
2023/09/08 15:53:16;;;;;;;;;;;;;;;5.66;100.00;99657.97;5055383;28;19971;-90
2023/09/08 15:55:42;;;;;;;;;;;;;;;5.66;100.00;99653.56;5064349;28;19916;-93
2023/09/08 15:58:07;;;;;;;;;;;;;;;5.70;100.00;99651.75;5064557;28;20362;-91
2023/09/08 16:00:32;;;;;;;;;;;;;;;5.67;100.00;99649.19;5063764;28;19920;-91
2023/09/08 16:02:58;;;;;;;;;;;;;;;5.65;100.00;99651.84;5063104;28;20363;-91
2023/09/08 16:05:23;;;;;;;;;;;;;;;5.66;100.00;99650.09;5063982;28;19974;-92
2023/09/08 16:07:48;;;;;;;;;;;;;;;5.59;100.00;99650.22;5062185;28;19964;-90
2023/09/08 16:10:13;;;;;;;;;;;;;;;5.67;100.00;99647.41;5063261;28;19973;-89
2023/09/08 16:12:39;;;;;;;;;;;;;;;5.51;100.00;99657.44;5044373;28;19917;-87
2023/09/08 16:15:04;;;;;;;;;;;;;;;5.53;100.00;99657.41;5045651;28;20019;-87
2023/09/08 16:17:30;;;;;;;;;;;;;;;5.53;100.00;99654.78;5044669;28;19923;-85
2023/09/08 16:19:55;;;;;;;;;;;;;;;5.49;100.00;99667.13;5063737;28;20318;-90
2023/09/08 16:22:21;;;;;;;;;;;;;;;5.55;100.00;99651.22;5045149;28;19931;-87
2023/09/08 16:24:46;;;;;;;;;;;;;;;5.53;100.00;99645.13;5045255;28;20341;-88
2023/09/08 16:27:12;;;;;;;;;;;;;;;5.77;100.00;99653.31;5045390;28;20378;-90
2023/09/08 16:29:39;;;;;;;;;;;;;;;5.51;100.00;99651.34;5041024;28;20399;-87
2023/09/08 16:32:04;;;;;;;;;;;;;;;5.53;100.00;99646.91;5044084;28;19917;-89
2023/09/08 16:34:29;;;;;;;;;;;;;;;5.54;100.00;99651.25;5063077;28;20309;-89
2023/09/08 16:36:55;;;;;;;;;;;;;;;5.49;100.00;99653.13;5063179;28;20454;-90
2023/09/08 16:39:20;;;;;;;;;;;;;;;5.57;100.00;99645.94;5062849;28;19924;-89
2023/09/08 16:41:45;;;;;;;;;;;;;;;5.46;100.00;99654.06;5063462;28;19920;-89
2023/09/08 16:44:10;;;;;;;;;;;;;;;5.41;100.00;99645.44;5062822;28;19916;-91
2023/09/08 16:46:36;;;;;;;;;;;;;;;5.57;100.00;99648.56;5043885;28;19925;-90
2023/09/08 16:49:01;;;;;;;;;;;;;;;5.55;100.00;99648.59;5044790;28;19917;-94
2023/09/08 16:51:26;;;;;;;;;;;;;;;5.49;100.00;99648.75;5044884;28;19973;-85
2023/09/08 16:53:54;;;;;;;;;;;;;;;5.54;100.00;99654.75;5044622;28;20275;-87
2023/09/08 16:56:19;;;;;;;;;;;;;;;5.60;100.00;99645.81;5045004;28;19986;-91
2023/09/08 16:58:44;;;;;;;;;;;;;;;5.58;100.00;99643.22;5062963;28;20363;-88
2023/09/08 17:01:12;;;;;;;;;;;;;;;5.52;100.00;99647.78;5061096;28;20194;-87
2023/09/08 17:03:38;;;;;;;;;;;;;;;5.52;100.00;99645.16;5044191;28;19921;-91
2023/09/08 17:06:03;;;;;;;;;;;;;;;5.45;100.00;99649.69;5041636;28;19920;-88
2023/09/08 17:08:28;;;;;;;;;;;;;;;5.49;100.00;99645.22;5058893;28;19931;-90
2023/09/08 17:10:54;;;;;;;;;;;;;;;5.58;100.00;99643.22;5063632;28;19917;-90
2023/09/08 17:13:25;;;;;;;;;;;;;;;5.52;100.00;99647.78;5059239;28;19921;-93
2023/09/08 17:15:50;;;;;;;;;;;;;;;5.54;100.00;99646.84;5041623;28;19924;-90
2023/09/08 17:18:17;;;;;;;;;;;;;;;5.54;100.00;99646.00;5060072;28;20282;-89
2023/09/08 17:20:42;;;;;;;;;;;;;;;5.51;100.00;99639.03;5061347;28;19966;-93
2023/09/08 17:23:17;;;;;;;;;;;;;;;5.57;100.00;99646.78;5062319;28;20450;-87
2023/09/08 17:28:51;;;;;;;;;;;;;;;5.59;100.00;99639.72;5029663;28;20007;-91
2023/09/08 17:31:17;;;;;;;;;;;;;;;5.60;100.00;99630.94;5060491;28;20062;-91
2023/09/08 17:33:47;;;;;;;;;;;;;;;5.68;100.00;99643.00;5059146;28;20402;-90
2023/09/08 17:36:15;;;;;;;;;;;;;;;5.63;100.00;99646.63;5058911;28;19924;-87
2023/09/08 17:38:41;;;;;;;;;;;;;;;5.61;100.00;99645.78;5037248;28;20014;-93
2023/09/08 17:41:07;;;;;;;;;;;;;;;5.69;100.00;99639.50;5044724;28;19929;-85
2023/09/08 17:43:32;;;;;;;;;;;;;;;11.73;100.00;99640.81;5060116;28;19920;-87
2023/09/08 17:46:04;;;;;;;;;;;;;;;7.86;100.00;99641.03;5059213;28;20325;-91
2023/09/08 17:48:48;;;;;;;;;;;;;;;;;;;;;
2023/09/08 17:51:14;;;;;;;;;;;;;;;6.35;100.00;99654.44;5062382;28;20429;-92
2023/09/08 17:53:39;;;;;;;;;;;;;;;6.14;100.00;99658.53;5064519;28;19963;-92
2023/09/08 17:56:04;;;;;;;;;;;;;;;6.05;100.00;99657.88;5044855;28;19920;-94
2023/09/08 17:58:31;;;;;;;;;;;;;;;5.93;100.00;99659.88;5059392;28;19932;-92
2023/09/08 18:00:59;;;;;;;;;;;;;;;5.96;100.00;99654.59;5060503;28;20019;-94
2023/09/08 18:06:15;;;;;;;;;;;;;;;5.94;100.00;99651.09;5101732;22;19928;-90
2023/09/08 18:08:50;;;;;;;;;;;;;;;5.94;100.00;99663.41;5037268;28;20419;-93
2023/09/08 18:11:34;;;;;;;;;;;;;;;;;;;;;
2023/09/08 18:14:02;;;;;;;;;;;;;;;5.92;100.00;99665.19;5053061;28;20019;-95
2023/09/08 18:16:52;;;;;;;;;;;;;;;5.99;100.00;99665.03;5053367;28;19925;-93
2023/09/08 18:19:27;;;;;;;;;;;;;;;5.85;100.00;99666.25;5038939;28;19936;-93
2023/09/08 18:22:11;;;;;;;;;;;;;;;;;;;;;
2023/09/08 18:24:50;;;;;;;;;;;;;;;;;;;;;
2023/09/08 18:27:28;;;;;;;;;;;;;;;5.91;100.00;99674.00;5061035;28;19931;-89
2023/09/08 18:30:04;;;;;;;;;;;;;;;5.90;100.00;99675.75;5058555;28;19929;-92
2023/09/08 18:32:43;;;;;;;;;;;;;;;5.96;100.00;99680.88;5063487;28;19927;-94
2023/09/08 18:35:08;;;;;;;;;;;;;;;5.95;100.00;99681.78;5061984;28;19925;-92
2023/09/08 18:37:34;;;;;;;;;;;;;;;6.02;100.00;99681.66;5065217;28;19932;-89
2023/09/08 18:39:59;;;;;;;;;;;;;;;5.91;100.00;99682.75;5072825;28;19921;-89
2023/09/08 18:45:00;;;;;;;;;;;;;;;6.00;100.00;99686.94;5056012;28;19929;-92
2023/09/08 18:47:26;;;;;;;;;;;;;;;5.97;100.00;99685.25;5036299;28;19950;-93
2023/09/08 18:49:54;;;;;;;;;;;;;;;5.99;100.00;99680.81;5038621;28;19916;-89
2023/09/08 18:52:23;;;;;;;;;;;;;;;5.96;100.00;99683.50;5078295;23;19925;-90
2023/09/08 18:54:48;;;;;;;;;;;;;;;5.92;100.00;99684.47;5036976;28;19921;-89
2023/09/08 18:57:18;;;;;;;;;;;;;;;5.89;100.00;99684.56;5044526;22;19939;-90